sensor_id;sensor_type;location;lat;lon;timestamp;temperature;humidity
34434;DHT22;34290;48.562;13.384;2022-12-18T00:01:17;-4.50;99.90
34434;DHT22;34290;48.562;13.384;2022-12-18T00:03:44;-4.60;99.90
34434;DHT22;34290;48.562;13.384;2022-12-18T00:06:12;-4.70;99.90
34434;DHT22;34290;48.562;13.384;2022-12-18T00:11:10;-4.80;99.90
34434;DHT22;34290;48.562;13.384;2022-12-18T00:16:06;-4.80;99.90
34434;DHT22;34290;48.562;13.384;2022-12-18T00:21:02;-4.80;99.90
34434;DHT22;34290;48.562;13.384;2022-12-18T00:23:30;-4.80;99.90
34434;DHT22;34290;48.562;13.384;2022-12-18T00:25:59;-4.90;99.90
34434;DHT22;34290;48.562;13.384;2022-12-18T00:33:27;-5.10;99.90
34434;DHT22;34290;48.562;13.384;2022-12-18T00:38:21;-5.00;99.90
34434;DHT22;34290;48.562;13.384;2022-12-18T00:43:15;-5.00;99.90
34434;DHT22;34290;48.562;13.384;2022-12-18T00:45:46;-5.00;99.90
34434;DHT22;34290;48.562;13.384;2022-12-18T00:48:13;-5.00;99.90
34434;DHT22;34290;48.562;13.384;2022-12-18T00:50:40;-5.00;99.90
34434;DHT22;34290;48.562;13.384;2022-12-18T00:53:10;-5.00;99.90
34434;DHT22;34290;48.562;13.384;2022-12-18T00:55:40;-5.00;99.90
34434;DHT22;34290;48.562;13.384;2022-12-18T00:58:07;-5.00;99.90
34434;DHT22;34290;48.562;13.384;2022-12-18T01:07:58;-5.10;99.90
34434;DHT22;34290;48.562;13.384;2022-12-18T01:12:52;-5.10;99.90
34434;DHT22;34290;48.562;13.384;2022-12-18T01:15:19;-5.20;99.90
34434;DHT22;34290;48.562;13.384;2022-12-18T01:17:46;-5.20;99.90
34434;DHT22;34290;48.562;13.384;2022-12-18T01:20:15;-5.20;99.90
34434;DHT22;34290;48.562;13.384;2022-12-18T01:22:42;-5.20;99.90
34434;DHT22;34290;48.562;13.384;2022-12-18T01:27:36;-5.20;99.90
34434;DHT22;34290;48.562;13.384;2022-12-18T01:30:04;-5.20;99.90
34434;DHT22;34290;48.562;13.384;2022-12-18T01:32:33;-5.20;99.90
34434;DHT22;34290;48.562;13.384;2022-12-18T01:37:29;-5.40;99.90
34434;DHT22;34290;48.562;13.384;2022-12-18T01:39:56;-5.40;99.90
34434;DHT22;34290;48.562;13.384;2022-12-18T01:44:58;-5.50;99.90
34434;DHT22;34290;48.562;13.384;2022-12-18T01:47:29;-5.40;99.90
34434;DHT22;34290;48.562;13.384;2022-12-18T01:49:59;-5.50;99.90
34434;DHT22;34290;48.562;13.384;2022-12-18T01:54:57;-5.60;99.90
34434;DHT22;34290;48.562;13.384;2022-12-18T01:57:25;-5.70;99.90
34434;DHT22;34290;48.562;13.384;2022-12-18T01:59:54;-5.60;99.90
34434;DHT22;34290;48.562;13.384;2022-12-18T02:07:25;-5.70;99.90
34434;DHT22;34290;48.562;13.384;2022-12-18T02:10:03;-5.70;99.90
34434;DHT22;34290;48.562;13.384;2022-12-18T02:12:40;-5.70;99.90
34434;DHT22;34290;48.562;13.384;2022-12-18T02:15:13;-5.70;99.90
34434;DHT22;34290;48.562;13.384;2022-12-18T02:17:47;-5.60;99.90
34434;DHT22;34290;48.562;13.384;2022-12-18T02:20:18;-5.70;99.90
34434;DHT22;34290;48.562;13.384;2022-12-18T02:23:00;-5.70;99.90
34434;DHT22;34290;48.562;13.384;2022-12-18T02:25:54;-5.60;99.90
34434;DHT22;34290;48.562;13.384;2022-12-18T02:28:28;-5.70;99.90
34434;DHT22;34290;48.562;13.384;2022-12-18T02:30:59;-5.70;99.90
34434;DHT22;34290;48.562;13.384;2022-12-18T02:35:58;-5.90;99.90
34434;DHT22;34290;48.562;13.384;2022-12-18T02:40:54;-5.80;99.90
34434;DHT22;34290;48.562;13.384;2022-12-18T02:43:24;-5.80;99.90
34434;DHT22;34290;48.562;13.384;2022-12-18T02:45:53;-5.80;99.90
34434;DHT22;34290;48.562;13.384;2022-12-18T02:48:24;-5.90;99.90
34434;DHT22;34290;48.562;13.384;2022-12-18T02:50:59;-5.80;99.90
34434;DHT22;34290;48.562;13.384;2022-12-18T02:53:34;-5.80;99.90
34434;DHT22;34290;48.562;13.384;2022-12-18T02:56:08;-5.80;99.90
34434;DHT22;34290;48.562;13.384;2022-12-18T02:58:44;-5.70;99.90
34434;DHT22;34290;48.562;13.384;2022-12-18T03:01:16;-5.80;99.90
34434;DHT22;34290;48.562;13.384;2022-12-18T03:03:50;-5.70;99.90
34434;DHT22;34290;48.562;13.384;2022-12-18T03:06:23;-5.80;99.90
34434;DHT22;34290;48.562;13.384;2022-12-18T03:08:56;-5.80;99.90
34434;DHT22;34290;48.562;13.384;2022-12-18T03:11:28;-5.30;99.90
34434;DHT22;34290;48.562;13.384;2022-12-18T03:14:15;-5.80;99.90
34434;DHT22;34290;48.562;13.384;2022-12-18T03:16:44;-5.80;99.90
34434;DHT22;34290;48.562;13.384;2022-12-18T03:19:16;-5.80;99.90
34434;DHT22;34290;48.562;13.384;2022-12-18T03:21:47;-5.80;99.90
34434;DHT22;34290;48.562;13.384;2022-12-18T03:24:17;-5.80;99.90
34434;DHT22;34290;48.562;13.384;2022-12-18T03:26:49;-5.90;99.90
34434;DHT22;34290;48.562;13.384;2022-12-18T03:29:19;-5.80;99.90
34434;DHT22;34290;48.562;13.384;2022-12-18T03:31:51;-5.90;99.90
34434;DHT22;34290;48.562;13.384;2022-12-18T03:34:23;-6.00;99.90
34434;DHT22;34290;48.562;13.384;2022-12-18T03:36:52;-5.80;99.90
34434;DHT22;34290;48.562;13.384;2022-12-18T03:39:19;-5.80;99.90
34434;DHT22;34290;48.562;13.384;2022-12-18T03:41:52;-5.80;99.90
34434;DHT22;34290;48.562;13.384;2022-12-18T03:44:29;-5.80;99.90
34434;DHT22;34290;48.562;13.384;2022-12-18T03:47:05;-5.80;99.90
34434;DHT22;34290;48.562;13.384;2022-12-18T03:49:38;-5.90;99.90
34434;DHT22;34290;48.562;13.384;2022-12-18T03:52:10;-5.90;99.90
34434;DHT22;34290;48.562;13.384;2022-12-18T03:54:39;-5.90;99.90
34434;DHT22;34290;48.562;13.384;2022-12-18T03:57:11;-5.90;99.90
34434;DHT22;34290;48.562;13.384;2022-12-18T03:59:40;-5.90;99.90
34434;DHT22;34290;48.562;13.384;2022-12-18T04:02:08;-5.90;99.90
34434;DHT22;34290;48.562;13.384;2022-12-18T04:04:37;-5.90;99.90
34434;DHT22;34290;48.562;13.384;2022-12-18T04:09:33;-5.90;99.90
34434;DHT22;34290;48.562;13.384;2022-12-18T04:12:02;-5.90;99.90
34434;DHT22;34290;48.562;13.384;2022-12-18T04:17:01;-5.80;99.90
34434;DHT22;34290;48.562;13.384;2022-12-18T04:19:28;-5.80;99.90
34434;DHT22;34290;48.562;13.384;2022-12-18T04:21:55;-5.80;99.90
34434;DHT22;34290;48.562;13.384;2022-12-18T04:36:39;-5.90;99.90
34434;DHT22;34290;48.562;13.384;2022-12-18T04:41:33;-6.00;99.90
34434;DHT22;34290;48.562;13.384;2022-12-18T04:44:00;-6.00;99.90
34434;DHT22;34290;48.562;13.384;2022-12-18T04:48:57;-6.00;99.90
34434;DHT22;34290;48.562;13.384;2022-12-18T04:53:51;-5.90;99.90
34434;DHT22;34290;48.562;13.384;2022-12-18T04:56:18;-6.00;99.90
34434;DHT22;34290;48.562;13.384;2022-12-18T05:01:14;-6.10;99.90
34434;DHT22;34290;48.562;13.384;2022-12-18T05:08:37;-6.20;99.90
34434;DHT22;34290;48.562;13.384;2022-12-18T05:11:07;-6.20;99.90
34434;DHT22;34290;48.562;13.384;2022-12-18T05:13:35;-6.20;99.90
34434;DHT22;34290;48.562;13.384;2022-12-18T05:16:04;-6.20;99.90
34434;DHT22;34290;48.562;13.384;2022-12-18T05:18:33;-6.20;99.90
34434;DHT22;34290;48.562;13.384;2022-12-18T05:21:02;-6.20;99.90
34434;DHT22;34290;48.562;13.384;2022-12-18T05:23:31;-6.20;99.90
34434;DHT22;34290;48.562;13.384;2022-12-18T05:26:03;-6.20;99.90
34434;DHT22;34290;48.562;13.384;2022-12-18T05:28:31;-6.30;99.90
34434;DHT22;34290;48.562;13.384;2022-12-18T05:31:01;-6.20;99.90
34434;DHT22;34290;48.562;13.384;2022-12-18T05:33:31;-6.20;99.90
34434;DHT22;34290;48.562;13.384;2022-12-18T05:36:03;-6.20;99.90
34434;DHT22;34290;48.562;13.384;2022-12-18T05:38:32;-6.20;99.90
34434;DHT22;34290;48.562;13.384;2022-12-18T05:41:02;-6.30;99.90
34434;DHT22;34290;48.562;13.384;2022-12-18T05:43:29;-6.30;99.90
34434;DHT22;34290;48.562;13.384;2022-12-18T05:45:57;-6.40;99.90
34434;DHT22;34290;48.562;13.384;2022-12-18T05:48:26;-6.40;99.90
34434;DHT22;34290;48.562;13.384;2022-12-18T05:50:53;-6.50;99.90
34434;DHT22;34290;48.562;13.384;2022-12-18T05:55:49;-6.50;99.90
34434;DHT22;34290;48.562;13.384;2022-12-18T06:00:45;-6.60;99.90
34434;DHT22;34290;48.562;13.384;2022-12-18T06:03:14;-6.50;99.90
34434;DHT22;34290;48.562;13.384;2022-12-18T06:05:43;-6.70;99.90
34434;DHT22;34290;48.562;13.384;2022-12-18T06:08:11;-6.70;99.90
34434;DHT22;34290;48.562;13.384;2022-12-18T06:15:36;-6.80;99.90
34434;DHT22;34290;48.562;13.384;2022-12-18T06:23:00;-6.80;99.90
34434;DHT22;34290;48.562;13.384;2022-12-18T06:25:27;-6.90;99.90
34434;DHT22;34290;48.562;13.384;2022-12-18T06:27:54;-6.90;99.90
34434;DHT22;34290;48.562;13.384;2022-12-18T06:32:50;-7.00;99.90
34434;DHT22;34290;48.562;13.384;2022-12-18T06:37:44;-7.00;99.90
34434;DHT22;34290;48.562;13.384;2022-12-18T06:45:08;-7.10;99.90
34434;DHT22;34290;48.562;13.384;2022-12-18T06:50:06;-7.20;99.90
34434;DHT22;34290;48.562;13.384;2022-12-18T06:52:33;-7.10;99.90
34434;DHT22;34290;48.562;13.384;2022-12-18T06:55:00;-7.10;99.90
34434;DHT22;34290;48.562;13.384;2022-12-18T06:59:55;-7.00;99.90
34434;DHT22;34290;48.562;13.384;2022-12-18T07:07:26;-7.20;99.90
34434;DHT22;34290;48.562;13.384;2022-12-18T07:12:20;-7.30;99.90
34434;DHT22;34290;48.562;13.384;2022-12-18T07:19:41;-7.20;99.90
34434;DHT22;34290;48.562;13.384;2022-12-18T07:22:09;-7.10;99.90
34434;DHT22;34290;48.562;13.384;2022-12-18T07:24:36;-7.10;99.90
34434;DHT22;34290;48.562;13.384;2022-12-18T07:27:03;-7.10;99.90
34434;DHT22;34290;48.562;13.384;2022-12-18T07:29:30;-7.00;99.90
34434;DHT22;34290;48.562;13.384;2022-12-18T07:31:57;-6.80;99.90
34434;DHT22;34290;48.562;13.384;2022-12-18T07:34:24;-6.70;99.90
34434;DHT22;34290;48.562;13.384;2022-12-18T07:36:51;-6.60;99.90
34434;DHT22;34290;48.562;13.384;2022-12-18T07:44:34;-6.10;99.90
34434;DHT22;34290;48.562;13.384;2022-12-18T07:47:01;-6.10;99.90
34434;DHT22;34290;48.562;13.384;2022-12-18T07:49:28;-6.20;99.90
34434;DHT22;34290;48.562;13.384;2022-12-18T07:51:55;-6.10;99.90
34434;DHT22;34290;48.562;13.384;2022-12-18T07:59:18;-6.70;99.90
34434;DHT22;34290;48.562;13.384;2022-12-18T08:01:45;-6.60;99.90
34434;DHT22;34290;48.562;13.384;2022-12-18T08:04:12;-6.70;99.90
34434;DHT22;34290;48.562;13.384;2022-12-18T08:06:39;-6.80;99.90
34434;DHT22;34290;48.562;13.384;2022-12-18T08:09:06;-6.80;99.90
34434;DHT22;34290;48.562;13.384;2022-12-18T08:11:35;-6.70;99.90
34434;DHT22;34290;48.562;13.384;2022-12-18T08:16:29;-6.50;99.90
34434;DHT22;34290;48.562;13.384;2022-12-18T08:21:26;-6.50;99.90
34434;DHT22;34290;48.562;13.384;2022-12-18T08:23:54;-6.50;99.90
34434;DHT22;34290;48.562;13.384;2022-12-18T08:26:22;-6.50;99.90
34434;DHT22;34290;48.562;13.384;2022-12-18T08:31:20;-6.10;99.90
34434;DHT22;34290;48.562;13.384;2022-12-18T08:33:48;-6.20;99.90
34434;DHT22;34290;48.562;13.384;2022-12-18T08:36:16;-6.40;99.90
34434;DHT22;34290;48.562;13.384;2022-12-18T08:41:12;-5.90;99.90
34434;DHT22;34290;48.562;13.384;2022-12-18T08:43:40;-5.90;99.90
34434;DHT22;34290;48.562;13.384;2022-12-18T08:46:30;-5.70;99.90
34434;DHT22;34290;48.562;13.384;2022-12-18T08:48:58;-5.80;99.90
34434;DHT22;34290;48.562;13.384;2022-12-18T08:56:20;-5.10;99.90
34434;DHT22;34290;48.562;13.384;2022-12-18T08:58:47;-4.60;99.90
34434;DHT22;34290;48.562;13.384;2022-12-18T09:03:42;-4.40;99.90
34434;DHT22;34290;48.562;13.384;2022-12-18T09:06:13;-4.10;99.90
34434;DHT22;34290;48.562;13.384;2022-12-18T09:11:13;-3.20;99.90
34434;DHT22;34290;48.562;13.384;2022-12-18T09:13:41;-2.60;99.90
34434;DHT22;34290;48.562;13.384;2022-12-18T09:16:10;-2.10;99.90
34434;DHT22;34290;48.562;13.384;2022-12-18T09:26:04;-2.60;99.90
34434;DHT22;34290;48.562;13.384;2022-12-18T09:33:26;-2.80;99.90
34434;DHT22;34290;48.562;13.384;2022-12-18T09:40:51;-3.00;99.90
34434;DHT22;34290;48.562;13.384;2022-12-18T09:43:24;-3.20;99.90
34434;DHT22;34290;48.562;13.384;2022-12-18T09:45:57;-3.30;99.90
34434;DHT22;34290;48.562;13.384;2022-12-18T09:48:28;-3.40;99.90
34434;DHT22;34290;48.562;13.384;2022-12-18T09:50:58;-3.60;99.90
34434;DHT22;34290;48.562;13.384;2022-12-18T09:53:33;-3.80;99.90
34434;DHT22;34290;48.562;13.384;2022-12-18T09:56:04;-4.00;99.90
34434;DHT22;34290;48.562;13.384;2022-12-18T09:58:36;-4.10;99.90
34434;DHT22;34290;48.562;13.384;2022-12-18T10:01:10;-4.00;99.90
34434;DHT22;34290;48.562;13.384;2022-12-18T10:06:11;-4.00;99.90
34434;DHT22;34290;48.562;13.384;2022-12-18T10:08:46;-4.00;99.90
34434;DHT22;34290;48.562;13.384;2022-12-18T10:11:34;0.00;99.90
34434;DHT22;34290;48.562;13.384;2022-12-18T10:14:09;-4.00;99.90
34434;DHT22;34290;48.562;13.384;2022-12-18T10:16:48;-4.30;99.90
34434;DHT22;34290;48.562;13.384;2022-12-18T10:19:35;-4.60;99.90
34434;DHT22;34290;48.562;13.384;2022-12-18T10:22:15;-4.30;99.90
34434;DHT22;34290;48.562;13.384;2022-12-18T10:24:52;-3.70;99.90
34434;DHT22;34290;48.562;13.384;2022-12-18T10:27:23;-3.10;99.90
34434;DHT22;34290;48.562;13.384;2022-12-18T10:32:23;-1.80;99.90
34434;DHT22;34290;48.562;13.384;2022-12-18T10:34:53;-1.60;99.90
34434;DHT22;34290;48.562;13.384;2022-12-18T10:37:22;-1.60;99.90
34434;DHT22;34290;48.562;13.384;2022-12-18T10:40:08;-1.70;99.90
34434;DHT22;34290;48.562;13.384;2022-12-18T10:45:11;-1.80;99.90
34434;DHT22;34290;48.562;13.384;2022-12-18T10:50:19;-2.00;99.90
34434;DHT22;34290;48.562;13.384;2022-12-18T10:52:54;-2.20;99.90
34434;DHT22;34290;48.562;13.384;2022-12-18T10:55:27;-2.00;99.90
34434;DHT22;34290;48.562;13.384;2022-12-18T11:00:29;-1.50;99.90
34434;DHT22;34290;48.562;13.384;2022-12-18T11:02:57;-1.10;99.90
34434;DHT22;34290;48.562;13.384;2022-12-18T11:05:28;-0.70;99.90
34434;DHT22;34290;48.562;13.384;2022-12-18T11:10:30;-1.00;99.90
34434;DHT22;34290;48.562;13.384;2022-12-18T11:13:15;-0.70;99.90
34434;DHT22;34290;48.562;13.384;2022-12-18T11:15:46;-0.70;99.90
34434;DHT22;34290;48.562;13.384;2022-12-18T11:18:17;-0.70;99.90
34434;DHT22;34290;48.562;13.384;2022-12-18T11:20:51;-0.70;99.90
34434;DHT22;34290;48.562;13.384;2022-12-18T11:23:21;-0.60;99.90
34434;DHT22;34290;48.562;13.384;2022-12-18T11:26:01;-0.30;99.90
34434;DHT22;34290;48.562;13.384;2022-12-18T11:28:38;-0.10;99.90
34434;DHT22;34290;48.562;13.384;2022-12-18T11:31:20;-0.10;99.90
34434;DHT22;34290;48.562;13.384;2022-12-18T11:33:56;0.10;99.90
34434;DHT22;34290;48.562;13.384;2022-12-18T11:36:32;0.70;99.90
34434;DHT22;34290;48.562;13.384;2022-12-18T11:39:09;1.00;99.90
34434;DHT22;34290;48.562;13.384;2022-12-18T11:41:45;1.40;99.90
34434;DHT22;34290;48.562;13.384;2022-12-18T11:44:38;1.80;99.90
34434;DHT22;34290;48.562;13.384;2022-12-18T11:47:13;1.90;99.90
34434;DHT22;34290;48.562;13.384;2022-12-18T11:49:42;2.10;99.90
34434;DHT22;34290;48.562;13.384;2022-12-18T11:52:16;2.30;99.90
34434;DHT22;34290;48.562;13.384;2022-12-18T11:57:24;2.40;99.90
34434;DHT22;34290;48.562;13.384;2022-12-18T12:00:04;2.70;99.90
34434;DHT22;34290;48.562;13.384;2022-12-18T12:02:47;2.70;99.90
34434;DHT22;34290;48.562;13.384;2022-12-18T12:05:30;2.60;99.90
34434;DHT22;34290;48.562;13.384;2022-12-18T12:08:06;2.30;99.90
34434;DHT22;34290;48.562;13.384;2022-12-18T12:10:45;2.10;99.90
34434;DHT22;34290;48.562;13.384;2022-12-18T12:13:28;1.90;99.90
34434;DHT22;34290;48.562;13.384;2022-12-18T12:16:06;1.90;99.90
34434;DHT22;34290;48.562;13.384;2022-12-18T12:18:47;1.90;99.90
34434;DHT22;34290;48.562;13.384;2022-12-18T12:21:23;1.90;99.90
34434;DHT22;34290;48.562;13.384;2022-12-18T12:24:00;1.20;99.90
34434;DHT22;34290;48.562;13.384;2022-12-18T12:26:37;0.90;99.90
34434;DHT22;34290;48.562;13.384;2022-12-18T12:29:18;0.90;99.90
34434;DHT22;34290;48.562;13.384;2022-12-18T12:32:01;1.20;99.90
34434;DHT22;34290;48.562;13.384;2022-12-18T12:34:40;1.20;99.90
34434;DHT22;34290;48.562;13.384;2022-12-18T12:37:20;1.20;99.90
34434;DHT22;34290;48.562;13.384;2022-12-18T12:39:52;0.90;99.90
34434;DHT22;34290;48.562;13.384;2022-12-18T12:42:26;0.70;99.90
34434;DHT22;34290;48.562;13.384;2022-12-18T12:45:18;0.70;99.90
34434;DHT22;34290;48.562;13.384;2022-12-18T12:47:49;0.90;99.90
34434;DHT22;34290;48.562;13.384;2022-12-18T12:50:21;1.10;99.90
34434;DHT22;34290;48.562;13.384;2022-12-18T12:55:21;1.30;99.90
34434;DHT22;34290;48.562;13.384;2022-12-18T12:57:55;1.20;99.90
34434;DHT22;34290;48.562;13.384;2022-12-18T13:00:34;0.90;99.90
34434;DHT22;34290;48.562;13.384;2022-12-18T13:03:11;2.50;99.90
34434;DHT22;34290;48.562;13.384;2022-12-18T13:05:44;0.70;99.90
34434;DHT22;34290;48.562;13.384;2022-12-18T13:08:22;0.60;99.90
34434;DHT22;34290;48.562;13.384;2022-12-18T13:10:49;0.40;99.90
34434;DHT22;34290;48.562;13.384;2022-12-18T13:13:48;-0.10;99.90
34434;DHT22;34290;48.562;13.384;2022-12-18T13:16:18;-0.30;99.90
34434;DHT22;34290;48.562;13.384;2022-12-18T13:18:49;-0.30;99.90
34434;DHT22;34290;48.562;13.384;2022-12-18T13:21:21;-0.40;99.90
34434;DHT22;34290;48.562;13.384;2022-12-18T13:26:38;-0.80;99.90
34434;DHT22;34290;48.562;13.384;2022-12-18T13:29:05;-1.10;99.90
34434;DHT22;34290;48.562;13.384;2022-12-18T13:31:58;-2.00;99.90
34434;DHT22;34290;48.562;13.384;2022-12-18T13:34:27;-2.00;99.90
34434;DHT22;34290;48.562;13.384;2022-12-18T13:36:56;-1.90;99.90
34434;DHT22;34290;48.562;13.384;2022-12-18T13:39:34;-2.00;99.90
34434;DHT22;34290;48.562;13.384;2022-12-18T13:45:59;-2.60;99.90
34434;DHT22;34290;48.562;13.384;2022-12-18T13:48:32;-2.40;99.90
34434;DHT22;34290;48.562;13.384;2022-12-18T13:51:04;-2.40;99.90
34434;DHT22;34290;48.562;13.384;2022-12-18T13:53:35;-2.50;99.90
34434;DHT22;34290;48.562;13.384;2022-12-18T13:56:06;-2.50;99.90
34434;DHT22;34290;48.562;13.384;2022-12-18T14:01:04;-2.70;99.90
34434;DHT22;34290;48.562;13.384;2022-12-18T14:03:32;-2.70;99.90
34434;DHT22;34290;48.562;13.384;2022-12-18T14:06:02;-2.90;99.90
34434;DHT22;34290;48.562;13.384;2022-12-18T14:08:36;-3.00;99.90
34434;DHT22;34290;48.562;13.384;2022-12-18T14:11:04;-3.00;99.90
34434;DHT22;34290;48.562;13.384;2022-12-18T14:13:34;-3.10;99.90
34434;DHT22;34290;48.562;13.384;2022-12-18T14:16:06;-3.20;99.90
34434;DHT22;34290;48.562;13.384;2022-12-18T14:18:44;-3.30;99.90
34434;DHT22;34290;48.562;13.384;2022-12-18T14:21:19;-3.40;99.90
34434;DHT22;34290;48.562;13.384;2022-12-18T14:26:23;-3.50;99.90
34434;DHT22;34290;48.562;13.384;2022-12-18T14:28:53;-3.50;99.90
34434;DHT22;34290;48.562;13.384;2022-12-18T14:31:22;-3.50;99.90
34434;DHT22;34290;48.562;13.384;2022-12-18T14:33:52;-3.50;99.90
34434;DHT22;34290;48.562;13.384;2022-12-18T14:36:20;-3.60;99.90
34434;DHT22;34290;48.562;13.384;2022-12-18T14:38:50;-3.60;99.90
34434;DHT22;34290;48.562;13.384;2022-12-18T14:41:18;-3.70;99.90
34434;DHT22;34290;48.562;13.384;2022-12-18T14:43:50;-3.80;99.90
34434;DHT22;34290;48.562;13.384;2022-12-18T14:46:33;-3.90;99.90
34434;DHT22;34290;48.562;13.384;2022-12-18T14:49:04;-4.00;99.90
34434;DHT22;34290;48.562;13.384;2022-12-18T14:51:32;-4.10;99.90
34434;DHT22;34290;48.562;13.384;2022-12-18T14:54:01;-4.20;99.90
34434;DHT22;34290;48.562;13.384;2022-12-18T14:56:30;-4.30;99.90
34434;DHT22;34290;48.562;13.384;2022-12-18T14:58:59;-4.60;99.90
34434;DHT22;34290;48.562;13.384;2022-12-18T15:01:31;-4.80;99.90
34434;DHT22;34290;48.562;13.384;2022-12-18T15:04:03;-4.90;99.90
34434;DHT22;34290;48.562;13.384;2022-12-18T15:06:33;-5.00;99.90
34434;DHT22;34290;48.562;13.384;2022-12-18T15:09:02;-5.00;99.90
34434;DHT22;34290;48.562;13.384;2022-12-18T15:11:36;-5.10;99.90
34434;DHT22;34290;48.562;13.384;2022-12-18T15:14:37;-5.20;99.90
34434;DHT22;34290;48.562;13.384;2022-12-18T15:17:16;-5.40;99.90
34434;DHT22;34290;48.562;13.384;2022-12-18T15:19:46;-5.40;99.90
34434;DHT22;34290;48.562;13.384;2022-12-18T15:22:24;-5.40;99.90
34434;DHT22;34290;48.562;13.384;2022-12-18T15:27:30;-5.50;99.90
34434;DHT22;34290;48.562;13.384;2022-12-18T15:30:19;-5.70;99.90
34434;DHT22;34290;48.562;13.384;2022-12-18T15:32:46;-5.70;99.90
34434;DHT22;34290;48.562;13.384;2022-12-18T15:35:21;-5.80;99.90
34434;DHT22;34290;48.562;13.384;2022-12-18T15:40:17;-5.80;99.90
34434;DHT22;34290;48.562;13.384;2022-12-18T15:42:45;-5.80;99.90
34434;DHT22;34290;48.562;13.384;2022-12-18T15:45:34;-6.00;99.90
34434;DHT22;34290;48.562;13.384;2022-12-18T15:50:32;-6.00;99.90
34434;DHT22;34290;48.562;13.384;2022-12-18T15:52:59;-6.00;99.90
34434;DHT22;34290;48.562;13.384;2022-12-18T15:58:12;-6.00;99.90
34434;DHT22;34290;48.562;13.384;2022-12-18T16:00:40;-6.10;99.90
34434;DHT22;34290;48.562;13.384;2022-12-18T16:05:39;-6.10;99.90
34434;DHT22;34290;48.562;13.384;2022-12-18T16:10:33;-6.20;99.90
34434;DHT22;34290;48.562;13.384;2022-12-18T16:13:01;-6.30;99.90
34434;DHT22;34290;48.562;13.384;2022-12-18T16:15:28;-6.40;99.90
34434;DHT22;34290;48.562;13.384;2022-12-18T16:17:55;-6.40;99.90
34434;DHT22;34290;48.562;13.384;2022-12-18T16:20:22;-6.40;99.90
34434;DHT22;34290;48.562;13.384;2022-12-18T16:25:23;-6.40;99.90
34434;DHT22;34290;48.562;13.384;2022-12-18T16:30:21;-6.30;99.90
34434;DHT22;34290;48.562;13.384;2022-12-18T16:32:48;-6.40;99.90
34434;DHT22;34290;48.562;13.384;2022-12-18T16:37:43;-6.40;99.90
34434;DHT22;34290;48.562;13.384;2022-12-18T16:40:13;-6.40;99.90
34434;DHT22;34290;48.562;13.384;2022-12-18T16:42:42;-6.30;99.90
34434;DHT22;34290;48.562;13.384;2022-12-18T16:45:11;-6.30;99.90
34434;DHT22;34290;48.562;13.384;2022-12-18T16:47:39;-6.20;99.90
34434;DHT22;34290;48.562;13.384;2022-12-18T16:50:06;-6.20;99.90
34434;DHT22;34290;48.562;13.384;2022-12-18T17:02:25;-6.50;99.90
34434;DHT22;34290;48.562;13.384;2022-12-18T17:04:53;-6.50;99.90
34434;DHT22;34290;48.562;13.384;2022-12-18T17:22:06;-6.70;99.90
34434;DHT22;34290;48.562;13.384;2022-12-18T17:31:57;-6.90;99.90
34434;DHT22;34290;48.562;13.384;2022-12-18T17:39:19;-7.10;99.90
34434;DHT22;34290;48.562;13.384;2022-12-18T17:46:41;-7.00;99.90
34434;DHT22;34290;48.562;13.384;2022-12-18T17:53:40;-6.90;99.90
34434;DHT22;34290;48.562;13.384;2022-12-18T17:58:36;-7.00;99.90
34434;DHT22;34290;48.562;13.384;2022-12-18T18:06:00;-7.30;99.90
34434;DHT22;34290;48.562;13.384;2022-12-18T18:08:27;-7.30;99.90
34434;DHT22;34290;48.562;13.384;2022-12-18T18:13:43;-7.40;99.90
34434;DHT22;34290;48.562;13.384;2022-12-18T18:16:30;-7.40;99.90
34434;DHT22;34290;48.562;13.384;2022-12-18T18:18:58;-7.50;99.90
34434;DHT22;34290;48.562;13.384;2022-12-18T18:21:29;-7.50;99.90
34434;DHT22;34290;48.562;13.384;2022-12-18T18:23:58;-7.40;99.90
34434;DHT22;34290;48.562;13.384;2022-12-18T18:26:29;-7.20;99.90
34434;DHT22;34290;48.562;13.384;2022-12-18T18:28:57;-7.10;99.90
34434;DHT22;34290;48.562;13.384;2022-12-18T18:31:25;-7.10;99.90
34434;DHT22;34290;48.562;13.384;2022-12-18T18:33:52;-7.10;99.90
34434;DHT22;34290;48.562;13.384;2022-12-18T18:36:20;-7.20;99.90
34434;DHT22;34290;48.562;13.384;2022-12-18T18:38:47;-7.20;99.90
34434;DHT22;34290;48.562;13.384;2022-12-18T18:41:14;-7.20;99.90
34434;DHT22;34290;48.562;13.384;2022-12-18T18:43:42;-7.10;99.90
34434;DHT22;34290;48.562;13.384;2022-12-18T18:46:12;-7.20;99.90
34434;DHT22;34290;48.562;13.384;2022-12-18T18:48:39;-7.20;99.90
34434;DHT22;34290;48.562;13.384;2022-12-18T18:51:08;-7.10;99.90
34434;DHT22;34290;48.562;13.384;2022-12-18T18:53:36;-6.90;99.90
34434;DHT22;34290;48.562;13.384;2022-12-18T18:56:04;-6.80;99.90
34434;DHT22;34290;48.562;13.384;2022-12-18T18:58:34;-6.60;99.90
34434;DHT22;34290;48.562;13.384;2022-12-18T19:01:05;-6.60;99.90
34434;DHT22;34290;48.562;13.384;2022-12-18T19:03:33;-6.50;99.90
34434;DHT22;34290;48.562;13.384;2022-12-18T19:08:31;-6.50;99.90
34434;DHT22;34290;48.562;13.384;2022-12-18T19:11:00;-6.50;99.90
34434;DHT22;34290;48.562;13.384;2022-12-18T19:13:29;-6.50;99.90
34434;DHT22;34290;48.562;13.384;2022-12-18T19:16:03;-6.50;99.90
34434;DHT22;34290;48.562;13.384;2022-12-18T19:18:33;-6.50;99.90
34434;DHT22;34290;48.562;13.384;2022-12-18T19:21:04;-6.50;99.90
34434;DHT22;34290;48.562;13.384;2022-12-18T19:23:32;-6.50;99.90
34434;DHT22;34290;48.562;13.384;2022-12-18T19:25:59;-6.40;99.90
34434;DHT22;34290;48.562;13.384;2022-12-18T19:28:27;-6.50;99.90
34434;DHT22;34290;48.562;13.384;2022-12-18T19:30:54;-6.60;99.90
34434;DHT22;34290;48.562;13.384;2022-12-18T19:33:23;-6.60;99.90
34434;DHT22;34290;48.562;13.384;2022-12-18T19:38:21;-6.60;99.90
34434;DHT22;34290;48.562;13.384;2022-12-18T19:40:48;-6.60;99.90
34434;DHT22;34290;48.562;13.384;2022-12-18T19:43:15;-6.70;99.90
34434;DHT22;34290;48.562;13.384;2022-12-18T19:48:09;-6.80;99.90
34434;DHT22;34290;48.562;13.384;2022-12-18T19:50:44;-6.90;99.90
34434;DHT22;34290;48.562;13.384;2022-12-18T19:55:39;-6.70;99.90
34434;DHT22;34290;48.562;13.384;2022-12-18T20:00:34;-6.80;99.90
34434;DHT22;34290;48.562;13.384;2022-12-18T20:03:00;-7.00;99.90
34434;DHT22;34290;48.562;13.384;2022-12-18T20:05:28;-7.40;99.90
34434;DHT22;34290;48.562;13.384;2022-12-18T20:07:56;-7.60;99.90
34434;DHT22;34290;48.562;13.384;2022-12-18T20:12:50;-7.70;99.90
34434;DHT22;34290;48.562;13.384;2022-12-18T20:15:18;-7.80;99.90
34434;DHT22;34290;48.562;13.384;2022-12-18T20:17:45;-7.80;99.90
34434;DHT22;34290;48.562;13.384;2022-12-18T20:20:12;-7.70;99.90
34434;DHT22;34290;48.562;13.384;2022-12-18T20:22:39;-7.70;99.90
34434;DHT22;34290;48.562;13.384;2022-12-18T20:25:08;-7.50;99.90
34434;DHT22;34290;48.562;13.384;2022-12-18T20:30:03;-7.20;99.90
34434;DHT22;34290;48.562;13.384;2022-12-18T20:32:30;-7.20;99.90
34434;DHT22;34290;48.562;13.384;2022-12-18T20:34:57;-7.10;99.90
34434;DHT22;34290;48.562;13.384;2022-12-18T20:37:24;-7.10;99.90